KRAC/RAC METAR and TAF weather

Enter ICAO airport designator
Station Type Date Time Source
KRAC METAR 2021/01/17 19:19 UTC NOAA

KRAC 171919Z AUTO 28006KT 10SM SCT017 BKN060 OVC070 01/M03 A2968 RMK AO2 T00061033


Station Type Date Time Source
KRAC Decoded METAR 2021/01/17 19:19 UTC NOAA

BATTEN INTERNATIONAL AIRPORT, WI, United States (KRAC) 42-46N 87-49W 203M
Jan 17, 2021 - 02:19 PM EST / 2021.01.17 1919 UTC
Wind: from the W (280 degrees) at 7 MPH (6 KT):0
Visibility: 10 mile(s):0
Sky conditions: overcast
Temperature: 33.1 F (0.6 C)
Windchill: 26 F (-3 C):1
Dew Point: 26.1 F (-3.3 C)
Relative Humidity: 75%
Pressure (altimeter): 29.68 in. Hg (1005 hPa)
ob: KRAC 171919Z AUTO 28006KT 10SM SCT017 BKN060 OVC070 01/M03 A2968 RMK AO2 T00061033
cycle: 19

Station Type Date Time Source
KRAC TAF UTC NOAA

Error!

Example: see airport list